Time,TemperatureF,DewpointF,PressureIn,WindDirection,WindDirectionDegrees,WindSpeedMPH,WindSpeedGustMPH,Humidity,HourlyPrecipIn,Conditions,Clouds,dailyrainin,SolarRadiationWatts/m^2,SoftwareType,DateUTC
2013-02-07 00:01:00,42.0,35.0,-100.00,East,87,1.0,5.0,76,0.00,,,0.00,0.000000,,2013-02-07 08:01:00,
2013-02-07 00:11:00,42.0,35.0,-100.00,East,87,1.0,5.0,76,0.00,,,0.00,0.000000,,2013-02-07 08:11:00,
2013-02-07 00:42:00,41.0,35.0,-100.00,East,96,0.0,5.0,79,0.00,,,0.00,0.000000,,2013-02-07 08:42:00,
2013-02-07 00:52:00,41.0,35.0,-100.00,East,96,0.0,5.0,79,0.00,,,0.00,0.000000,,2013-02-07 08:52:00,
2013-02-07 01:01:00,41.0,35.0,-100.00,East,96,0.0,5.0,79,0.00,,,0.00,0.000000,,2013-02-07 09:01:00,
2013-02-07 01:11:00,41.0,35.0,-100.00,East,96,0.0,5.0,79,0.00,,,0.00,0.000000,,2013-02-07 09:11:00,
2013-02-07 01:32:00,39.0,34.0,-100.00,SE,126,0.0,4.0,83,0.00,,,0.00,0.000000,,2013-02-07 09:32:00,
2013-02-07 01:42:00,39.0,34.0,-100.00,SE,126,0.0,4.0,83,0.00,,,0.00,0.000000,,2013-02-07 09:42:00,
2013-02-07 01:52:00,39.0,34.0,-100.00,SE,126,0.0,4.0,83,0.00,,,0.00,0.000000,,2013-02-07 09:52:00,
2013-02-07 02:01:00,39.0,34.0,-100.00,SE,126,0.0,4.0,83,0.00,,,0.00,0.000000,,2013-02-07 10:01:00,
2013-02-07 02:11:00,39.0,34.0,-100.00,SE,126,0.0,4.0,83,0.00,,,0.00,0.000000,,2013-02-07 10:11:00,
2013-02-07 02:42:00,40.0,36.0,-100.00,East,88,2.0,4.0,86,0.00,,,0.00,0.000000,,2013-02-07 10:42:00,
2013-02-07 02:52:00,40.0,36.0,-100.00,East,88,2.0,4.0,86,0.00,,,0.00,0.000000,,2013-02-07 10:52:00,
2013-02-07 03:01:00,40.0,36.0,-100.00,East,88,2.0,4.0,86,0.00,,,0.00,0.000000,,2013-02-07 11:01:00,
2013-02-07 03:11:00,40.0,36.0,-100.00,East,88,2.0,4.0,86,0.00,,,0.00,0.000000,,2013-02-07 11:11:00,
2013-02-07 03:44:00,42.0,31.0,-100.00,East,97,0.0,4.0,65,0.00,,,0.00,0.000000,,2013-02-07 11:44:00,
2013-02-07 03:52:00,42.0,31.0,-100.00,East,97,0.0,4.0,65,0.00,,,0.00,0.000000,,2013-02-07 11:52:00,
2013-02-07 04:01:00,42.0,31.0,-100.00,East,97,0.0,4.0,65,0.00,,,0.00,0.000000,,2013-02-07 12:01:00,
2013-02-07 04:11:00,42.0,31.0,-100.00,East,97,0.0,4.0,65,0.00,,,0.00,0.000000,,2013-02-07 12:11:00,
2013-02-07 04:33:00,40.0,30.0,-100.00,North,353,0.0,4.0,66,0.00,,,0.00,0.000000,,2013-02-07 12:33:00,
2013-02-07 04:42:00,40.0,30.0,-100.00,North,353,0.0,4.0,66,0.00,,,0.00,0.000000,,2013-02-07 12:42:00,
2013-02-07 04:53:00,40.0,30.0,-100.00,North,353,0.0,4.0,66,0.00,,,0.00,0.000000,,2013-02-07 12:53:00,
2013-02-07 05:02:00,40.0,30.0,-100.00,North,353,0.0,4.0,66,0.00,,,0.00,0.000000,,2013-02-07 13:02:00,
2013-02-07 05:11:00,40.0,30.0,-100.00,North,353,0.0,4.0,66,0.00,,,0.00,0.000000,,2013-02-07 13:11:00,
2013-02-07 05:42:00,41.0,31.0,-100.00,East,94,0.0,4.0,68,0.00,,,0.00,0.000000,,2013-02-07 13:42:00,
2013-02-07 05:52:00,41.0,31.0,-100.00,East,94,0.0,4.0,68,0.00,,,0.00,0.000000,,2013-02-07 13:52:00,
2013-02-07 06:01:00,41.0,31.0,-100.00,East,94,0.0,4.0,68,0.00,,,0.00,0.000000,,2013-02-07 14:01:00,
2013-02-07 06:11:00,41.0,31.0,-100.00,East,94,0.0,4.0,68,0.00,,,0.00,0.000000,,2013-02-07 14:11:00,
2013-02-07 06:32:00,37.0,31.0,-100.00,East,80,0.0,5.0,80,0.00,,,-99.99,0.000000,,2013-02-07 14:32:00,
2013-02-07 06:42:00,37.0,31.0,-100.00,East,80,0.0,5.0,80,0.00,,,-99.99,0.000000,,2013-02-07 14:42:00,
2013-02-07 06:52:00,37.0,31.0,-100.00,East,80,0.0,5.0,80,0.00,,,-99.99,0.000000,,2013-02-07 14:52:00,
2013-02-07 07:01:00,37.0,31.0,-100.00,East,80,0.0,5.0,80,0.00,,,-99.99,0.000000,,2013-02-07 15:01:00,
2013-02-07 07:11:00,37.0,31.0,-100.00,East,80,0.0,5.0,80,0.00,,,-99.99,0.000000,,2013-02-07 15:11:00,
2013-02-07 07:42:00,39.0,29.0,-100.00,South,176,0.0,3.0,66,0.00,,,0.00,7.000000,,2013-02-07 15:42:00,
2013-02-07 07:52:00,39.0,29.0,-100.00,South,176,0.0,3.0,66,0.00,,,0.00,7.000000,,2013-02-07 15:52:00,
2013-02-07 08:01:00,39.0,29.0,-100.00,South,176,0.0,3.0,66,0.00,,,0.00,7.000000,,2013-02-07 16:01:00,
2013-02-07 08:11:00,39.0,29.0,-100.00,South,176,0.0,3.0,66,0.00,,,0.00,7.000000,,2013-02-07 16:11:00,
2013-02-07 08:42:00,43.0,32.0,-100.00,SW,216,0.0,3.0,65,0.00,,,0.00,46.000000,,2013-02-07 16:42:00,
2013-02-07 08:52:00,43.0,32.0,-100.00,SW,216,0.0,3.0,65,0.00,,,0.00,46.000000,,2013-02-07 16:52:00,
2013-02-07 09:01:00,43.0,32.0,-100.00,SW,216,0.0,3.0,65,0.00,,,0.00,46.000000,,2013-02-07 17:01:00,
2013-02-07 09:11:00,43.0,32.0,-100.00,SW,216,0.0,3.0,65,0.00,,,0.00,46.000000,,2013-02-07 17:11:00,
2013-02-07 09:43:00,59.0,40.0,-100.00,WNW,298,0.0,0.0,49,0.00,,,-99.99,372.000000,,2013-02-07 17:43:00,
2013-02-07 09:52:00,59.0,40.0,-100.00,WNW,298,0.0,0.0,49,0.00,,,-99.99,372.000000,,2013-02-07 17:52:00,
2013-02-07 10:01:00,59.0,40.0,-100.00,WNW,298,0.0,0.0,49,0.00,,,-99.99,372.000000,,2013-02-07 18:01:00,
2013-02-07 10:11:00,59.0,40.0,-100.00,WNW,298,0.0,0.0,49,0.00,,,-99.99,372.000000,,2013-02-07 18:11:00,
2013-02-07 10:42:00,63.0,39.0,-100.00,West,259,2.0,7.0,41,0.00,,,0.00,531.000000,,2013-02-07 18:42:00,
2013-02-07 10:52:00,63.0,39.0,-100.00,West,259,2.0,7.0,41,0.00,,,0.00,531.000000,,2013-02-07 18:52:00,
2013-02-07 11:01:00,63.0,39.0,-100.00,West,259,2.0,7.0,41,0.00,,,0.00,531.000000,,2013-02-07 19:01:00,
2013-02-07 11:11:00,63.0,39.0,-100.00,West,259,2.0,7.0,41,0.00,,,0.00,531.000000,,2013-02-07 19:11:00,
2013-02-07 11:42:00,67.0,38.0,-100.00,West,279,5.0,9.0,34,0.00,,,0.00,602.000000,,2013-02-07 19:42:00,
2013-02-07 11:52:00,67.0,38.0,-100.00,West,279,5.0,9.0,34,0.00,,,0.00,602.000000,,2013-02-07 19:52:00,
2013-02-07 12:01:00,67.0,38.0,-100.00,West,279,5.0,9.0,34,0.00,,,0.00,602.000000,,2013-02-07 20:01:00,
2013-02-07 12:11:00,67.0,38.0,-100.00,West,279,5.0,9.0,34,0.00,,,0.00,602.000000,,2013-02-07 20:11:00,
2013-02-07 12:42:00,66.0,40.0,-100.00,West,262,7.0,10.0,38,0.00,,,0.00,488.000000,,2013-02-07 20:42:00,
2013-02-07 12:52:00,66.0,40.0,-100.00,West,262,7.0,10.0,38,0.00,,,0.00,488.000000,,2013-02-07 20:52:00,
2013-02-07 13:01:00,66.0,40.0,-100.00,West,262,7.0,10.0,38,0.00,,,0.00,488.000000,,2013-02-07 21:01:00,
2013-02-07 13:11:00,66.0,40.0,-100.00,West,262,7.0,10.0,38,0.00,,,0.00,488.000000,,2013-02-07 21:11:00,
2013-02-07 13:42:00,67.0,41.0,-100.00,WNW,286,2.0,10.0,38,0.00,,,0.00,584.000000,,2013-02-07 21:42:00,
2013-02-07 13:52:00,67.0,41.0,-100.00,WNW,286,2.0,10.0,38,0.00,,,0.00,584.000000,,2013-02-07 21:52:00,
2013-02-07 14:01:00,67.0,41.0,-100.00,WNW,286,2.0,10.0,38,0.00,,,0.00,584.000000,,2013-02-07 22:01:00,
2013-02-07 14:11:00,67.0,41.0,-100.00,WNW,286,2.0,10.0,38,0.00,,,0.00,584.000000,,2013-02-07 22:11:00,
2013-02-07 14:32:00,70.0,41.0,-100.00,North,357,3.0,8.0,35,0.00,,,0.00,529.000000,,2013-02-07 22:32:00,
2013-02-07 14:42:00,70.0,41.0,-100.00,North,357,3.0,8.0,35,0.00,,,0.00,529.000000,,2013-02-07 22:42:00,
2013-02-07 14:52:00,70.0,41.0,-100.00,North,357,3.0,8.0,35,0.00,,,0.00,529.000000,,2013-02-07 22:52:00,
2013-02-07 15:01:00,70.0,41.0,-100.00,North,357,3.0,8.0,35,0.00,,,0.00,529.000000,,2013-02-07 23:01:00,
2013-02-07 15:11:00,70.0,41.0,-100.00,North,357,3.0,8.0,35,0.00,,,0.00,529.000000,,2013-02-07 23:11:00,
2013-02-07 15:42:00,68.0,39.0,-100.00,WNW,288,4.0,10.0,34,0.00,,,0.00,414.000000,,2013-02-07 23:42:00,
2013-02-07 15:52:00,68.0,39.0,-100.00,WNW,288,4.0,10.0,34,0.00,,,0.00,414.000000,,2013-02-07 23:52:00,
2013-02-07 16:01:00,68.0,39.0,-100.00,WNW,288,4.0,10.0,34,0.00,,,0.00,414.000000,,2013-02-08 00:01:00,
2013-02-07 16:11:00,68.0,39.0,-100.00,WNW,288,4.0,10.0,34,0.00,,,0.00,414.000000,,2013-02-08 00:11:00,
2013-02-07 17:52:00,54.0,42.0,-100.00,WSW,247,0.0,7.0,64,0.00,,,0.00,46.000000,,2013-02-08 01:52:00,
2013-02-07 18:01:00,54.0,42.0,-100.00,WSW,247,0.0,7.0,64,0.00,,,0.00,46.000000,,2013-02-08 02:01:00,
2013-02-07 18:11:00,54.0,42.0,-100.00,WSW,247,0.0,7.0,64,0.00,,,0.00,46.000000,,2013-02-08 02:11:00,
2013-02-07 18:42:00,50.0,46.0,-100.00,West,265,3.0,12.0,85,0.00,,,0.00,1.000000,,2013-02-08 02:42:00,
2013-02-07 18:52:00,50.0,46.0,-100.00,West,265,3.0,12.0,85,0.00,,,0.00,1.000000,,2013-02-08 02:52:00,
2013-02-07 19:01:00,50.0,46.0,-100.00,West,265,3.0,12.0,85,0.00,,,0.00,1.000000,,2013-02-08 03:01:00,
2013-02-07 19:12:00,50.0,46.0,-100.00,West,265,3.0,12.0,85,0.00,,,0.00,1.000000,,2013-02-08 03:12:00,
2013-02-07 19:32:00,49.0,45.0,-100.00,West,278,4.0,9.0,87,0.00,,,0.00,0.000000,,2013-02-08 03:32:00,
2013-02-07 19:42:00,49.0,45.0,-100.00,West,278,4.0,9.0,87,0.00,,,0.00,0.000000,,2013-02-08 03:42:00,
2013-02-07 19:52:00,49.0,45.0,-100.00,West,278,4.0,9.0,87,0.00,,,0.00,0.000000,,2013-02-08 03:52:00,
2013-02-07 20:01:00,49.0,45.0,-100.00,West,278,4.0,9.0,87,0.00,,,0.00,0.000000,,2013-02-08 04:01:00,
2013-02-07 20:11:00,49.0,45.0,-100.00,West,278,4.0,9.0,87,0.00,,,0.00,0.000000,,2013-02-08 04:11:00,
2013-02-07 20:32:00,48.0,45.0,-100.00,West,281,2.0,7.0,88,0.00,,,0.00,0.000000,,2013-02-08 04:32:00,
2013-02-07 20:42:00,48.0,45.0,-100.00,West,281,2.0,7.0,88,0.00,,,0.00,0.000000,,2013-02-08 04:42:00,
2013-02-07 20:52:00,48.0,45.0,-100.00,West,281,2.0,7.0,88,0.00,,,0.00,0.000000,,2013-02-08 04:52:00,
2013-02-07 21:01:00,48.0,45.0,-100.00,West,281,2.0,7.0,88,0.00,,,0.00,0.000000,,2013-02-08 05:01:00,
2013-02-07 21:11:00,48.0,45.0,-100.00,West,281,2.0,7.0,88,0.00,,,0.00,0.000000,,2013-02-08 05:11:00,
2013-02-07 21:32:00,49.0,46.0,-100.00,WNW,286,2.0,7.0,90,0.00,,,0.00,0.000000,,2013-02-08 05:32:00,
2013-02-07 21:42:00,49.0,46.0,-100.00,WNW,286,2.0,7.0,90,0.00,,,0.00,0.000000,,2013-02-08 05:42:00,
2013-02-07 21:52:00,49.0,46.0,-100.00,WNW,286,2.0,7.0,90,0.00,,,0.00,0.000000,,2013-02-08 05:52:00,
2013-02-07 22:01:00,49.0,46.0,-100.00,WNW,286,2.0,7.0,90,0.00,,,0.00,0.000000,,2013-02-08 06:01:00,
2013-02-07 22:11:00,49.0,46.0,-100.00,WNW,286,2.0,7.0,90,0.00,,,0.00,0.000000,,2013-02-08 06:11:00,
2013-02-07 22:32:00,48.0,45.0,-100.00,West,269,5.0,10.0,88,0.00,,,0.00,0.000000,,2013-02-08 06:32:00,
2013-02-07 22:42:00,48.0,45.0,-100.00,West,269,5.0,10.0,88,0.00,,,0.00,0.000000,,2013-02-08 06:42:00,
2013-02-07 22:52:00,48.0,45.0,-100.00,West,269,5.0,10.0,88,0.00,,,0.00,0.000000,,2013-02-08 06:52:00,
2013-02-07 23:01:00,48.0,45.0,-100.00,West,269,5.0,10.0,88,0.00,,,0.00,0.000000,,2013-02-08 07:01:00,
2013-02-07 23:11:00,48.0,45.0,-100.00,West,269,5.0,10.0,88,0.00,,,0.00,0.000000,,2013-02-08 07:11:00,
2013-02-07 23:32:00,46.0,41.0,-100.00,WSW,256,3.0,10.0,83,0.00,,,0.00,0.000000,,2013-02-08 07:32:00,
2013-02-07 23:42:00,46.0,41.0,-100.00,WSW,256,3.0,10.0,83,0.00,,,0.00,0.000000,,2013-02-08 07:42:00,
2013-02-07 23:52:00,46.0,41.0,-100.00,WSW,256,3.0,10.0,83,0.00,,,0.00,0.000000,,2013-02-08 07:52:00,